createdAt,value
2017-05-26T00:00:04.417Z,0
2017-05-26T00:01:04.399Z,0
2017-05-26T00:02:04.052Z,0
2017-05-26T00:03:04.054Z,0
2017-05-26T00:04:04.424Z,0
2017-05-26T00:05:04.430Z,0
2017-05-26T00:06:04.077Z,0
2017-05-26T00:07:03.771Z,0
2017-05-26T00:08:04.412Z,0
2017-05-26T00:09:04.117Z,0
2017-05-26T00:10:04.161Z,0
2017-05-26T00:11:04.124Z,0
2017-05-26T00:12:04.132Z,0
2017-05-26T00:13:04.498Z,0
2017-05-26T00:14:04.142Z,0
2017-05-26T00:15:04.560Z,0
2017-05-26T00:16:04.472Z,0
2017-05-26T00:17:04.479Z,0
2017-05-26T00:18:04.486Z,0
2017-05-26T00:19:04.543Z,0
2017-05-26T00:20:04.503Z,0
2017-05-26T00:21:04.200Z,0
2017-05-26T00:22:04.525Z,0
2017-05-26T00:23:04.536Z,0
2017-05-26T00:24:04.533Z,0
2017-05-26T00:25:04.543Z,0
2017-05-26T00:26:03.931Z,0
2017-05-26T00:27:03.988Z,0
2017-05-26T00:28:04.253Z,0
2017-05-26T00:29:04.268Z,0
2017-05-26T00:30:04.327Z,0
2017-05-26T00:31:04.281Z,0
2017-05-26T00:32:04.288Z,0
2017-05-26T00:33:04.296Z,0
2017-05-26T00:34:04.305Z,0
2017-05-26T00:35:04.312Z,0
2017-05-26T00:36:04.318Z,0
2017-05-26T00:37:04.327Z,0
2017-05-26T00:38:04.083Z,0
2017-05-26T00:39:03.723Z,0
2017-05-26T00:40:04.663Z,0
2017-05-26T00:41:04.360Z,0
2017-05-26T00:42:04.425Z,0
2017-05-26T00:43:04.378Z,0
2017-05-26T00:44:04.451Z,0
2017-05-26T00:45:04.398Z,0
2017-05-26T00:46:04.450Z,0
2017-05-26T00:47:04.096Z,0
2017-05-26T00:48:04.726Z,0
2017-05-26T00:49:04.783Z,0
2017-05-26T00:50:04.121Z,0
2017-05-26T00:51:04.750Z,0
2017-05-26T00:52:04.827Z,0
2017-05-26T00:53:04.452Z,0
2017-05-26T00:54:04.201Z,0
2017-05-26T00:55:04.474Z,0
2017-05-26T00:56:04.482Z,0
2017-05-26T00:57:04.797Z,0
2017-05-26T00:58:04.190Z,0
2017-05-26T00:59:04.553Z,0
2017-05-26T01:00:04.510Z,0
2017-05-26T01:01:04.887Z,0
2017-05-26T01:02:04.889Z,0
2017-05-26T01:03:04.846Z,0
2017-05-26T01:04:04.593Z,0
2017-05-26T01:05:04.864Z,0
2017-05-26T01:06:04.558Z,0
2017-05-26T01:07:04.926Z,0
2017-05-26T01:08:04.572Z,0
2017-05-26T01:09:04.585Z,0
2017-05-26T01:10:04.281Z,0
2017-05-26T01:11:04.600Z,0
2017-05-26T01:12:04.916Z,0
2017-05-26T01:13:04.927Z,0
2017-05-26T01:14:05.031Z,0
2017-05-26T01:15:04.678Z,0
2017-05-26T01:16:05.000Z,0
2017-05-26T01:17:04.694Z,0
2017-05-26T01:18:05.020Z,0
2017-05-26T01:19:04.988Z,0
2017-05-26T01:20:05.031Z,0
2017-05-26T01:21:04.991Z,0
2017-05-26T01:22:05.047Z,0
2017-05-26T01:23:04.697Z,0
2017-05-26T01:24:05.060Z,0
2017-05-26T01:25:05.029Z,0
2017-05-26T01:26:05.027Z,0
2017-05-26T01:27:04.724Z,0
2017-05-26T01:28:05.043Z,0
2017-05-26T01:29:04.790Z,0
2017-05-26T01:30:05.363Z,0
2017-05-26T01:31:04.753Z,0
2017-05-26T01:32:05.078Z,0
2017-05-26T01:33:04.838Z,0
2017-05-26T01:34:04.783Z,0
2017-05-26T01:35:04.796Z,0
2017-05-26T01:36:04.848Z,0
2017-05-26T01:37:05.166Z,0
2017-05-26T01:38:04.550Z,0
2017-05-26T01:39:04.818Z,0
2017-05-26T01:40:04.519Z,0
2017-05-26T01:41:05.146Z,0
2017-05-26T01:42:05.202Z,0
2017-05-26T01:43:05.166Z,0
2017-05-26T01:44:05.231Z,0
2017-05-26T01:45:05.177Z,0
2017-05-26T01:46:05.533Z,0
2017-05-26T01:47:05.203Z,0
2017-05-26T01:48:05.256Z,0
2017-05-26T01:49:04.896Z,0
2017-05-26T01:50:04.958Z,0
2017-05-26T01:51:04.962Z,0
2017-05-26T01:52:05.233Z,0
2017-05-26T01:53:04.616Z,0
2017-05-26T01:54:04.986Z,0
2017-05-26T01:55:04.952Z,0
2017-05-26T01:56:05.262Z,0
2017-05-26T01:57:05.271Z,0
2017-05-26T01:58:05.285Z,0
2017-05-26T01:59:05.288Z,0
2017-05-26T02:00:04.988Z,0
2017-05-26T02:01:05.356Z,0
2017-05-26T02:02:05.349Z,0
2017-05-26T02:03:05.009Z,0
2017-05-26T02:04:05.015Z,0
2017-05-26T02:05:04.775Z,0
2017-05-26T02:06:05.390Z,0
2017-05-26T02:07:05.041Z,0
2017-05-26T02:08:05.048Z,0
2017-05-26T02:09:05.061Z,0
2017-05-26T02:10:04.754Z,0
2017-05-26T02:11:05.381Z,0
2017-05-26T02:12:05.077Z,0
2017-05-26T02:13:05.452Z,0
2017-05-26T02:14:05.096Z,0
2017-05-26T02:15:05.101Z,0
2017-05-26T02:16:05.420Z,0
2017-05-26T02:17:05.486Z,0
2017-05-26T02:18:05.438Z,0
2017-05-26T02:19:05.135Z,0
2017-05-26T02:20:04.840Z,0
2017-05-26T02:21:05.202Z,0
2017-05-26T02:22:05.161Z,0
2017-05-26T02:23:05.481Z,0
2017-05-26T02:24:05.488Z,0
2017-05-26T02:25:05.240Z,0
2017-05-26T02:26:05.501Z,0
2017-05-26T02:27:05.245Z,0
2017-05-26T02:28:05.205Z,0
2017-05-26T02:29:05.217Z,0
2017-05-26T02:30:05.547Z,0
2017-05-26T02:31:05.229Z,0
2017-05-26T02:32:05.549Z,0
2017-05-26T02:33:05.655Z,0
2017-05-26T02:34:05.249Z,0
2017-05-26T02:35:05.262Z,0
2017-05-26T02:36:05.371Z,0
2017-05-26T02:37:05.587Z,0
2017-05-26T02:38:05.290Z,0
2017-05-26T02:39:05.602Z,0
2017-05-26T02:40:05.090Z,0
2017-05-26T02:41:05.362Z,0
2017-05-26T02:42:05.326Z,0
2017-05-26T02:43:05.638Z,0
2017-05-26T02:44:05.641Z,0
2017-05-26T02:45:05.339Z,0
2017-05-26T02:46:05.400Z,0
2017-05-26T02:47:05.667Z,0
2017-05-26T02:48:05.676Z,0
2017-05-26T02:49:05.733Z,0
2017-05-26T02:50:05.384Z,0
2017-05-26T02:51:05.382Z,0
2017-05-26T02:52:05.391Z,0
2017-05-26T02:53:05.407Z,4
2017-05-26T02:54:05.716Z,4
2017-05-26T02:55:05.729Z,4
2017-05-26T02:56:05.432Z,0
2017-05-26T02:57:05.127Z,0
2017-05-26T02:58:05.133Z,4
2017-05-26T02:59:05.453Z,4
2017-05-26T03:00:05.211Z,0
2017-05-26T03:01:05.516Z,4
2017-05-26T03:02:05.785Z,4
2017-05-26T03:03:05.484Z,4
2017-05-26T03:04:05.805Z,4
2017-05-26T03:05:05.548Z,4
2017-05-26T03:06:05.913Z,4
2017-05-26T03:07:05.881Z,4
2017-05-26T03:08:05.209Z,4
2017-05-26T03:09:05.573Z,8
2017-05-26T03:10:05.857Z,8
2017-05-26T03:11:05.906Z,12
2017-05-26T03:12:05.601Z,12
2017-05-26T03:13:05.560Z,12
2017-05-26T03:14:05.569Z,12
2017-05-26T03:15:05.263Z,16
2017-05-26T03:16:05.891Z,16
2017-05-26T03:17:05.333Z,16
2017-05-26T03:18:05.699Z,20
2017-05-26T03:19:06.015Z,20
2017-05-26T03:20:05.922Z,20
2017-05-26T03:21:05.308Z,24
2017-05-26T03:22:05.627Z,24
2017-05-26T03:23:06.003Z,24
2017-05-26T03:24:06.021Z,28
2017-05-26T03:25:06.064Z,32
2017-05-26T03:26:05.966Z,32
2017-05-26T03:27:05.978Z,40
2017-05-26T03:28:05.987Z,40
2017-05-26T03:29:05.994Z,44
2017-05-26T03:30:05.689Z,44
2017-05-26T03:31:05.697Z,48
2017-05-26T03:32:05.808Z,52
2017-05-26T03:33:06.022Z,56
2017-05-26T03:34:06.032Z,60
2017-05-26T03:35:06.038Z,64
2017-05-26T03:36:06.145Z,68
2017-05-26T03:37:05.794Z,72
2017-05-26T03:38:06.069Z,76
2017-05-26T03:39:05.760Z,80
2017-05-26T03:40:05.768Z,88
2017-05-26T03:41:06.087Z,88
2017-05-26T03:42:06.093Z,96
2017-05-26T03:43:06.203Z,100
2017-05-26T03:44:06.164Z,108
2017-05-26T03:45:05.819Z,112
2017-05-26T03:46:05.820Z,116
2017-05-26T03:47:05.819Z,124
2017-05-26T03:48:06.143Z,128
2017-05-26T03:49:06.146Z,136
2017-05-26T03:50:05.849Z,140
2017-05-26T03:51:06.215Z,144
2017-05-26T03:52:05.240Z,152
2017-05-26T03:53:05.872Z,160
2017-05-26T03:54:06.241Z,164
2017-05-26T03:55:06.253Z,176
2017-05-26T03:56:06.202Z,184
2017-05-26T03:57:06.273Z,184
2017-05-26T03:58:06.228Z,196
2017-05-26T03:59:06.227Z,204
2017-05-26T04:00:06.231Z,208
2017-05-26T04:01:06.249Z,216
2017-05-26T04:02:06.256Z,228
2017-05-26T04:03:06.313Z,232
2017-05-26T04:04:06.260Z,244
2017-05-26T04:05:05.963Z,248
2017-05-26T04:06:05.972Z,256
2017-05-26T04:07:06.295Z,264
2017-05-26T04:08:06.307Z,268
2017-05-26T04:09:06.305Z,280
2017-05-26T04:10:05.691Z,284
2017-05-26T04:11:06.471Z,292
2017-05-26T04:12:05.753Z,304
2017-05-26T04:13:06.024Z,308
2017-05-26T04:14:05.725Z,320
2017-05-26T04:15:06.353Z,328
2017-05-26T04:16:06.457Z,336
2017-05-26T04:17:06.468Z,348
2017-05-26T04:18:06.376Z,360
2017-05-26T04:19:06.379Z,372
2017-05-26T04:20:06.405Z,400
2017-05-26T04:21:06.090Z,428
2017-05-26T04:22:06.411Z,432
2017-05-26T04:23:05.786Z,420
2017-05-26T04:24:06.421Z,420
2017-05-26T04:25:06.433Z,424
2017-05-26T04:26:06.486Z,432
2017-05-26T04:27:05.831Z,436
2017-05-26T04:28:06.755Z,448
2017-05-26T04:29:06.510Z,464
2017-05-26T04:30:06.469Z,476
2017-05-26T04:31:05.855Z,492
2017-05-26T04:32:06.485Z,520
2017-05-26T04:33:06.231Z,556
2017-05-26T04:34:06.240Z,564
2017-05-26T04:35:06.199Z,588
2017-05-26T04:36:06.521Z,624
2017-05-26T04:37:06.529Z,656
2017-05-26T04:38:06.584Z,664
2017-05-26T04:39:06.226Z,700
2017-05-26T04:40:06.547Z,788
2017-05-26T04:41:06.657Z,912
2017-05-26T04:42:06.301Z,952
2017-05-26T04:43:06.573Z,1052
2017-05-26T04:44:06.576Z,1116
2017-05-26T04:45:06.586Z,1112
2017-05-26T04:46:06.334Z,1136
2017-05-26T04:47:06.704Z,1196
2017-05-26T04:48:06.309Z,1592
2017-05-26T04:49:06.306Z,1956
2017-05-26T04:50:06.370Z,2356
2017-05-26T04:51:06.632Z,2868
2017-05-26T04:52:06.696Z,3208
2017-05-26T04:53:06.044Z,3316
2017-05-26T04:54:06.659Z,3392
2017-05-26T04:55:06.720Z,3472
2017-05-26T04:56:06.367Z,3536
2017-05-26T04:57:06.425Z,3588
2017-05-26T04:58:06.719Z,3704
2017-05-26T04:59:06.710Z,3788
2017-05-26T05:00:06.403Z,3876
2017-05-26T05:01:06.517Z,3956
2017-05-26T05:02:06.112Z,4068
2017-05-26T05:03:06.433Z,4168
2017-05-26T05:04:06.755Z,4296
2017-05-26T05:05:06.763Z,4360
2017-05-26T05:06:06.828Z,4480
2017-05-26T05:07:06.881Z,4636
2017-05-26T05:08:06.793Z,4824
2017-05-26T05:09:06.813Z,4940
2017-05-26T05:10:06.812Z,5096
2017-05-26T05:11:06.512Z,5156
2017-05-26T05:12:06.520Z,5240
2017-05-26T05:13:06.220Z,5420
2017-05-26T05:14:06.851Z,5500
2017-05-26T05:15:06.548Z,5680
2017-05-26T05:16:06.250Z,5844
2017-05-26T05:17:06.578Z,5956
2017-05-26T05:18:06.580Z,6060
2017-05-26T05:19:06.906Z,6180
2017-05-26T05:20:06.598Z,6236
2017-05-26T05:21:06.929Z,6228
2017-05-26T05:22:06.936Z,6124
2017-05-26T05:23:06.944Z,6252
2017-05-26T05:24:06.641Z,6484
2017-05-26T05:25:06.383Z,6644
2017-05-26T05:26:06.987Z,6672
2017-05-26T05:27:06.985Z,6696
2017-05-26T05:28:06.995Z,6652
2017-05-26T05:29:07.064Z,6248
2017-05-26T05:30:07.069Z,6096
2017-05-26T05:31:07.024Z,6524
2017-05-26T05:32:07.087Z,7000
2017-05-26T05:33:07.047Z,7252
2017-05-26T05:34:06.748Z,7592
2017-05-26T05:35:06.757Z,7512
2017-05-26T05:36:07.079Z,7512
2017-05-26T05:37:06.781Z,7868
2017-05-26T05:38:07.158Z,7976
2017-05-26T05:39:06.803Z,8088
2017-05-26T05:40:06.816Z,8528
2017-05-26T05:41:06.827Z,8592
2017-05-26T05:42:06.832Z,8868
2017-05-26T05:43:06.844Z,9164
2017-05-26T05:44:07.167Z,9428
2017-05-26T05:45:07.183Z,9904
2017-05-26T05:46:06.878Z,10448
2017-05-26T05:47:06.907Z,10964
2017-05-26T05:48:07.209Z,11400
2017-05-26T05:49:06.961Z,11580
2017-05-26T05:50:07.236Z,11912
2017-05-26T05:51:06.935Z,11364
2017-05-26T05:52:07.258Z,11440
2017-05-26T05:53:06.957Z,11552
2017-05-26T05:54:07.329Z,11780
2017-05-26T05:55:07.293Z,11828
2017-05-26T05:56:07.043Z,11856
2017-05-26T05:57:07.052Z,11796
2017-05-26T05:58:07.350Z,11748
2017-05-26T05:59:07.347Z,12172
2017-05-26T06:00:07.456Z,12844
2017-05-26T06:01:07.359Z,12944
2017-05-26T06:02:06.767Z,13244
2017-05-26T06:03:07.070Z,13484
2017-05-26T06:04:07.133Z,13368
2017-05-26T06:05:07.094Z,13000
2017-05-26T06:06:07.478Z,12972
2017-05-26T06:07:07.426Z,13040
2017-05-26T06:08:07.439Z,13176
2017-05-26T06:09:07.442Z,14208
2017-05-26T06:10:07.152Z,14912
2017-05-26T06:11:07.469Z,15136
2017-05-26T06:12:07.169Z,15520
2017-05-26T06:13:07.190Z,15904
2017-05-26T06:14:07.202Z,16640
2017-05-26T06:15:07.264Z,17056
2017-05-26T06:16:07.272Z,17120
2017-05-26T06:17:07.544Z,17024
2017-05-26T06:18:07.555Z,16800
2017-05-26T06:19:07.267Z,17664
2017-05-26T06:20:07.269Z,18336
2017-05-26T06:21:07.331Z,19008
2017-05-26T06:22:07.311Z,19008
2017-05-26T06:23:07.307Z,19232
2017-05-26T06:24:07.625Z,19136
2017-05-26T06:25:07.637Z,18560
2017-05-26T06:26:07.393Z,18432
2017-05-26T06:27:07.667Z,17536
2017-05-26T06:28:07.420Z,16320
2017-05-26T06:29:07.389Z,16704
2017-05-26T06:30:07.441Z,17152
2017-05-26T06:31:07.090Z,17600
2017-05-26T06:32:07.123Z,17824
2017-05-26T06:33:07.128Z,18080
2017-05-26T06:34:07.132Z,18080
2017-05-26T06:35:07.453Z,17856
2017-05-26T06:36:07.468Z,17696
2017-05-26T06:37:07.476Z,17472
2017-05-26T06:38:07.491Z,17120
2017-05-26T06:39:07.500Z,17120
2017-05-26T06:40:07.513Z,16832
2017-05-26T06:41:07.837Z,16576
2017-05-26T06:42:07.541Z,16192
2017-05-26T06:43:07.860Z,16320
2017-05-26T06:44:07.877Z,16192
2017-05-26T06:45:07.577Z,15296
2017-05-26T06:46:07.641Z,14624
2017-05-26T06:47:07.608Z,14976
2017-05-26T06:48:07.669Z,15008
2017-05-26T06:49:07.632Z,14816
2017-05-26T06:50:07.642Z,15456
2017-05-26T06:51:07.662Z,15904
2017-05-26T06:52:07.664Z,16064
2017-05-26T06:53:07.683Z,16288
2017-05-26T06:54:07.694Z,16640
2017-05-26T06:55:07.392Z,16864
2017-05-26T06:56:08.029Z,17280
2017-05-26T06:57:07.420Z,16864
2017-05-26T06:58:07.747Z,16000
2017-05-26T06:59:08.064Z,16960
2017-05-26T07:00:08.133Z,18624
2017-05-26T07:01:08.092Z,18720
2017-05-26T07:02:07.893Z,19296
2017-05-26T07:03:08.115Z,20000
2017-05-26T07:04:07.869Z,20128
2017-05-26T07:05:07.832Z,19968
2017-05-26T07:06:08.210Z,19072
2017-05-26T07:07:07.857Z,18368
2017-05-26T07:08:07.873Z,19104
2017-05-26T07:09:08.201Z,20576
2017-05-26T07:10:08.252Z,22944
2017-05-26T07:11:07.907Z,24544
2017-05-26T07:12:07.919Z,25280
2017-05-26T07:13:08.243Z,25792
2017-05-26T07:14:07.325Z,26400
2017-05-26T07:15:08.371Z,27168
2017-05-26T07:16:08.291Z,27680
2017-05-26T07:17:07.673Z,28096
2017-05-26T07:18:07.685Z,29024
2017-05-26T07:19:08.319Z,30016
2017-05-26T07:20:07.717Z,30720
2017-05-26T07:21:07.730Z,30784
2017-05-26T07:22:08.050Z,31680
2017-05-26T07:23:08.478Z,33312
2017-05-26T07:24:08.389Z,34208
2017-05-26T07:25:08.445Z,34880
2017-05-26T07:26:08.101Z,35328
2017-05-26T07:27:08.113Z,36224
2017-05-26T07:28:08.437Z,36928
2017-05-26T07:29:08.457Z,37920
2017-05-26T07:30:08.456Z,38368
2017-05-26T07:31:08.277Z,39136
2017-05-26T07:32:08.495Z,37440
2017-05-26T07:33:08.504Z,24832
2017-05-26T07:34:07.896Z,9272
2017-05-26T07:35:08.538Z,2148
2017-05-26T07:36:08.232Z,1876
2017-05-26T07:37:08.243Z,1500
2017-05-26T07:38:08.623Z,1188
2017-05-26T07:39:08.274Z,1016
2017-05-26T07:40:07.973Z,900
2017-05-26T07:41:08.295Z,828
2017-05-26T07:42:08.366Z,796
2017-05-26T07:43:08.059Z,764
2017-05-26T07:44:08.693Z,812
2017-05-26T07:45:08.650Z,808
2017-05-26T07:46:08.663Z,792
2017-05-26T07:47:08.360Z,768
2017-05-26T07:48:08.734Z,756
2017-05-26T07:49:08.121Z,756
2017-05-26T07:50:08.394Z,768
2017-05-26T07:51:08.403Z,788
2017-05-26T07:52:08.108Z,792
2017-05-26T07:53:08.737Z,828
2017-05-26T07:54:08.450Z,944
2017-05-26T07:55:08.442Z,1124
2017-05-26T07:56:08.452Z,1272
2017-05-26T07:57:08.824Z,1364
2017-05-26T07:58:08.474Z,1396
2017-05-26T07:59:08.533Z,1416
2017-05-26T08:00:07.920Z,1408
2017-05-26T08:01:08.521Z,1404
2017-05-26T08:02:08.250Z,1408
2017-05-26T08:03:07.947Z,1404
2017-05-26T08:04:07.905Z,1396
2017-05-26T08:05:08.851Z,1384
2017-05-26T08:06:08.856Z,1356
2017-05-26T08:07:08.875Z,1328
2017-05-26T08:08:08.567Z,1304
2017-05-26T08:09:08.890Z,1280
2017-05-26T08:10:07.964Z,1252
2017-05-26T08:11:08.906Z,1220
2017-05-26T08:12:08.613Z,1188
2017-05-26T08:13:08.976Z,1160
2017-05-26T08:14:08.623Z,1148
2017-05-26T08:15:08.634Z,1136
2017-05-26T08:16:09.016Z,1124
2017-05-26T08:17:08.966Z,1112
2017-05-26T08:18:08.349Z,1092
2017-05-26T08:19:08.674Z,1072
2017-05-26T08:20:08.993Z,1056
2017-05-26T08:21:09.108Z,1044
2017-05-26T08:22:08.702Z,1024
2017-05-26T08:23:09.020Z,992
2017-05-26T08:24:09.031Z,944
2017-05-26T08:25:08.731Z,900
2017-05-26T08:26:08.840Z,864
2017-05-26T08:27:08.846Z,824
2017-05-26T08:28:09.064Z,820
2017-05-26T08:29:08.763Z,840
2017-05-26T08:30:08.464Z,896
2017-05-26T08:31:40.866Z,940
2017-05-26T08:32:08.795Z,940
2017-05-26T08:33:08.508Z,944
2017-05-26T08:34:09.171Z,940
2017-05-26T08:35:09.130Z,936
2017-05-26T08:36:09.146Z,932
2017-05-26T08:37:08.837Z,936
2017-05-26T08:38:08.852Z,972
2017-05-26T08:39:09.167Z,1028
2017-05-26T08:40:08.863Z,1064
2017-05-26T08:41:09.247Z,1076
2017-05-26T08:42:09.203Z,1100
2017-05-26T08:43:08.893Z,1136
2017-05-26T08:44:08.902Z,1164
2017-05-26T08:45:09.014Z,1204
2017-05-26T08:46:09.287Z,1248
2017-05-26T08:47:08.979Z,1284
2017-05-26T08:48:09.301Z,1336
2017-05-26T08:49:08.950Z,1384
2017-05-26T08:50:08.956Z,1428
2017-05-26T08:51:09.069Z,1452
2017-05-26T08:52:08.664Z,1472
2017-05-26T08:53:09.295Z,1488
2017-05-26T08:54:08.991Z,1512
2017-05-26T08:55:09.317Z,1500
2017-05-26T08:56:08.702Z,1492
2017-05-26T08:57:09.027Z,1484
2017-05-26T08:58:09.394Z,1476
2017-05-26T08:59:09.354Z,1484
2017-05-26T09:00:09.417Z,1492
2017-05-26T09:01:09.372Z,1476
2017-05-26T09:02:09.378Z,1496
2017-05-26T09:03:09.074Z,1484
2017-05-26T09:04:09.084Z,1484
2017-05-26T09:05:09.095Z,1500
2017-05-26T09:06:09.106Z,1504
2017-05-26T09:07:09.119Z,1508
2017-05-26T09:08:08.864Z,1504
2017-05-26T09:09:09.134Z,1496
2017-05-26T09:10:09.510Z,1484
2017-05-26T09:11:09.516Z,1472
2017-05-26T09:12:09.470Z,1476
2017-05-26T09:13:09.227Z,1480
2017-05-26T09:14:09.175Z,1472
2017-05-26T09:15:09.497Z,1484
2017-05-26T09:16:09.241Z,1496
2017-05-26T09:17:09.528Z,1492
2017-05-26T09:18:09.219Z,1468
2017-05-26T09:19:09.529Z,1468
2017-05-26T09:20:09.558Z,1464
2017-05-26T09:21:08.931Z,1420
2017-05-26T09:22:08.938Z,1432
2017-05-26T09:23:09.311Z,1444
2017-05-26T09:24:09.007Z,1448
2017-05-26T09:25:09.281Z,1468
2017-05-26T09:26:09.293Z,1460
2017-05-26T09:27:09.299Z,1468
2017-05-26T09:28:09.672Z,1468
2017-05-26T09:29:09.622Z,1460
2017-05-26T09:30:09.328Z,1436
2017-05-26T09:31:09.691Z,1432
2017-05-26T09:32:09.359Z,1412
2017-05-26T09:33:09.715Z,1408
2017-05-26T09:34:09.727Z,1420
2017-05-26T09:35:09.424Z,1404
2017-05-26T09:36:09.453Z,1392
2017-05-26T09:37:09.447Z,1388
2017-05-26T09:38:09.139Z,1408
2017-05-26T09:39:09.415Z,1420
2017-05-26T09:40:09.418Z,1436
2017-05-26T09:41:09.430Z,1436
2017-05-26T09:42:09.492Z,1432
2017-05-26T09:43:09.762Z,1420
2017-05-26T09:44:09.774Z,1412
2017-05-26T09:45:09.781Z,1408
2017-05-26T09:46:09.797Z,1388
2017-05-26T09:47:09.175Z,1388
2017-05-26T09:48:09.499Z,1372
2017-05-26T09:49:09.293Z,1368
2017-05-26T09:50:09.822Z,1524
2017-05-26T09:51:09.208Z,1388
2017-05-26T09:52:09.526Z,1380
2017-05-26T09:53:09.540Z,1388
2017-05-26T09:54:09.551Z,1380
2017-05-26T09:55:09.557Z,1372
2017-05-26T09:56:09.617Z,1360
2017-05-26T09:57:09.590Z,1340
2017-05-26T09:58:09.684Z,1348
2017-05-26T09:59:09.657Z,1352
2017-05-26T10:00:09.612Z,1336
2017-05-26T10:01:09.614Z,1340
2017-05-26T10:02:09.675Z,1324
2017-05-26T10:03:09.636Z,1336
2017-05-26T10:04:09.330Z,1328
2017-05-26T10:05:09.658Z,1320
2017-05-26T10:06:09.672Z,1324
2017-05-26T10:07:09.671Z,1324
2017-05-26T10:08:09.768Z,1328
2017-05-26T10:09:09.757Z,1324
2017-05-26T10:10:09.387Z,1312
2017-05-26T10:11:09.709Z,1320
2017-05-26T10:12:09.768Z,1316
2017-05-26T10:13:09.419Z,1308
2017-05-26T10:14:09.734Z,1308
2017-05-26T10:15:09.742Z,1316
2017-05-26T10:16:10.077Z,1304
2017-05-26T10:17:09.772Z,1312
2017-05-26T10:18:09.463Z,1304
2017-05-26T10:19:09.795Z,1304
2017-05-26T10:20:09.791Z,1292
2017-05-26T10:21:09.538Z,1300
2017-05-26T10:22:09.520Z,1304
2017-05-26T10:23:09.871Z,1292
2017-05-26T10:24:10.196Z,1284
2017-05-26T10:25:09.850Z,1288
2017-05-26T10:26:09.845Z,1284
2017-05-26T10:27:10.166Z,1284
2017-05-26T10:28:09.878Z,1268
2017-05-26T10:29:09.667Z,1276
2017-05-26T10:30:09.573Z,1264
2017-05-26T10:31:09.891Z,1268
2017-05-26T10:32:10.259Z,1264
2017-05-26T10:33:09.598Z,1260
2017-05-26T10:34:09.983Z,1252
2017-05-26T10:35:10.246Z,1268
2017-05-26T10:36:09.326Z,1264
2017-05-26T10:37:09.993Z,1260
2017-05-26T10:38:09.953Z,1236
2017-05-26T10:39:10.377Z,1252
2017-05-26T10:40:09.976Z,1236
2017-05-26T10:41:09.984Z,1236
2017-05-26T10:42:10.039Z,1244
2017-05-26T10:43:10.003Z,1240
2017-05-26T10:44:10.058Z,1228
2017-05-26T10:45:10.382Z,1224
2017-05-26T10:46:09.713Z,1204
2017-05-26T10:47:10.041Z,1220
2017-05-26T10:48:10.071Z,1208
2017-05-26T10:49:10.718Z,1200
2017-05-26T10:50:09.773Z,1212
2017-05-26T10:51:10.387Z,1208
2017-05-26T10:52:10.186Z,1208
2017-05-26T10:53:10.408Z,1188
2017-05-26T10:54:10.121Z,1188
2017-05-26T10:55:10.115Z,1192
2017-05-26T10:56:10.734Z,1184
2017-05-26T10:57:09.868Z,1172
2017-05-26T10:58:10.145Z,1168
2017-05-26T10:59:10.462Z,1164
2017-05-26T11:00:10.231Z,1156
2017-05-26T11:01:10.166Z,1156
2017-05-26T11:02:10.227Z,1148
2017-05-26T11:03:10.293Z,1152
2017-05-26T11:04:10.201Z,1144
2017-05-26T11:05:09.944Z,1148
2017-05-26T11:06:09.967Z,1128
2017-05-26T11:07:10.539Z,1124
2017-05-26T11:08:10.595Z,1120
2017-05-26T11:09:09.982Z,1128
2017-05-26T11:10:10.668Z,1116
2017-05-26T11:11:10.576Z,1132
2017-05-26T11:12:10.333Z,1120
2017-05-26T11:13:10.333Z,1124
2017-05-26T11:14:10.599Z,1132
2017-05-26T11:15:10.348Z,1144
2017-05-26T11:16:09.686Z,1148
2017-05-26T11:17:10.633Z,1140
2017-05-26T11:18:10.376Z,1136
2017-05-26T11:19:10.652Z,1132
2017-05-26T11:20:10.707Z,1128
2017-05-26T11:21:10.656Z,1124
2017-05-26T11:22:10.365Z,1128
2017-05-26T11:23:10.372Z,1120
2017-05-26T11:24:10.689Z,1120
2017-05-26T11:25:10.718Z,1120
2017-05-26T11:26:10.397Z,1112
2017-05-26T11:27:10.459Z,1088
2017-05-26T11:28:10.782Z,1100
2017-05-26T11:29:10.744Z,1096
2017-05-26T11:30:10.127Z,1096
2017-05-26T11:31:10.778Z,1096
2017-05-26T11:32:10.460Z,1088
2017-05-26T11:33:10.465Z,1084
2017-05-26T11:34:10.837Z,1092
2017-05-26T11:35:10.804Z,1084
2017-05-26T11:36:10.503Z,1080
2017-05-26T11:37:10.875Z,1080
2017-05-26T11:38:09.943Z,1060
2017-05-26T11:39:10.837Z,1068
2017-05-26T11:40:10.841Z,1064
2017-05-26T11:41:10.540Z,1064
2017-05-26T11:42:10.556Z,1068
2017-05-26T11:43:10.567Z,1052
2017-05-26T11:44:10.882Z,1044
2017-05-26T11:45:10.625Z,1032
2017-05-26T11:46:10.644Z,1016
2017-05-26T11:47:10.354Z,1004
2017-05-26T11:48:10.969Z,996
2017-05-26T11:49:10.929Z,1004
2017-05-26T11:50:10.944Z,988
2017-05-26T11:51:10.640Z,984
2017-05-26T11:52:10.953Z,964
2017-05-26T11:53:10.710Z,976
2017-05-26T11:54:10.983Z,972
2017-05-26T11:55:10.415Z,956
2017-05-26T11:56:10.684Z,948
2017-05-26T11:57:10.694Z,944
2017-05-26T11:58:11.021Z,928
2017-05-26T11:59:11.022Z,924
2017-05-26T12:00:10.722Z,916
2017-05-26T12:01:10.475Z,900
2017-05-26T12:02:10.438Z,896
2017-05-26T12:03:11.059Z,896
2017-05-26T12:04:10.807Z,884
2017-05-26T12:05:11.091Z,876
2017-05-26T12:06:10.831Z,868
2017-05-26T12:07:11.098Z,860
2017-05-26T12:08:10.488Z,864
2017-05-26T12:09:10.906Z,852
2017-05-26T12:10:11.172Z,840
2017-05-26T12:11:10.843Z,840
2017-05-26T12:12:10.833Z,824
2017-05-26T12:13:11.203Z,824
2017-05-26T12:14:11.163Z,812
2017-05-26T12:15:11.174Z,808
2017-05-26T12:16:11.183Z,808
2017-05-26T12:17:11.294Z,800
2017-05-26T12:18:10.886Z,808
2017-05-26T12:19:10.589Z,780
2017-05-26T12:20:11.233Z,768
2017-05-26T12:21:11.281Z,760
2017-05-26T12:22:10.668Z,752
2017-05-26T12:23:11.301Z,740
2017-05-26T12:24:11.008Z,736
2017-05-26T12:25:11.318Z,732
2017-05-26T12:26:11.325Z,720
2017-05-26T12:27:10.978Z,720
2017-05-26T12:28:10.367Z,716
2017-05-26T12:29:11.302Z,708
2017-05-26T12:30:10.377Z,704
2017-05-26T12:31:11.371Z,696
2017-05-26T12:32:11.332Z,692
2017-05-26T12:33:11.034Z,696
2017-05-26T12:34:11.425Z,692
2017-05-26T12:35:11.448Z,676
2017-05-26T12:36:10.747Z,668
2017-05-26T12:37:11.428Z,664
2017-05-26T12:38:11.487Z,648
2017-05-26T12:39:11.089Z,648
2017-05-26T12:40:11.092Z,640
2017-05-26T12:41:11.421Z,624
2017-05-26T12:42:11.474Z,612
2017-05-26T12:43:10.811Z,600
2017-05-26T12:44:11.131Z,600
2017-05-26T12:45:11.139Z,592
2017-05-26T12:46:11.457Z,584
2017-05-26T12:47:11.259Z,592
2017-05-26T12:48:10.859Z,560
2017-05-26T12:49:10.869Z,556
2017-05-26T12:50:10.878Z,568
2017-05-26T12:51:11.557Z,560
2017-05-26T12:52:11.516Z,552
2017-05-26T12:53:11.217Z,544
2017-05-26T12:54:11.323Z,540
2017-05-26T12:55:11.551Z,532
2017-05-26T12:56:11.608Z,520
2017-05-26T12:57:11.250Z,516
2017-05-26T12:58:11.263Z,556
2017-05-26T12:59:10.966Z,512
2017-05-26T13:00:11.330Z,508
2017-05-26T13:01:11.664Z,504
2017-05-26T13:02:11.909Z,500
2017-05-26T13:03:11.672Z,500
2017-05-26T13:04:11.632Z,492
2017-05-26T13:05:11.641Z,492
2017-05-26T13:06:11.347Z,488
2017-05-26T13:07:11.402Z,492
2017-05-26T13:08:11.360Z,480
2017-05-26T13:09:10.795Z,484
2017-05-26T13:10:11.062Z,480
2017-05-26T13:11:11.387Z,480
2017-05-26T13:12:11.404Z,480
2017-05-26T13:13:11.768Z,472
2017-05-26T13:14:11.466Z,472
2017-05-26T13:15:11.475Z,476
2017-05-26T13:16:11.964Z,472
2017-05-26T13:17:11.440Z,468
2017-05-26T13:18:11.451Z,464
2017-05-26T13:19:11.513Z,464
2017-05-26T13:20:11.780Z,460
2017-05-26T13:21:11.477Z,460
2017-05-26T13:22:11.489Z,456
2017-05-26T13:23:11.496Z,456
2017-05-26T13:24:11.519Z,452
2017-05-26T13:25:11.827Z,448
2017-05-26T13:26:11.839Z,456
2017-05-26T13:27:11.941Z,448
2017-05-26T13:28:11.857Z,440
2017-05-26T13:29:11.868Z,448
2017-05-26T13:30:11.300Z,436
2017-05-26T13:31:11.575Z,440
2017-05-26T13:32:10.958Z,436
2017-05-26T13:33:11.587Z,440
2017-05-26T13:34:11.594Z,436
2017-05-26T13:35:11.972Z,440
2017-05-26T13:36:11.309Z,436
2017-05-26T13:37:11.679Z,436
2017-05-26T13:38:11.689Z,436
2017-05-26T13:39:11.649Z,436
2017-05-26T13:40:11.655Z,432
2017-05-26T13:41:11.711Z,428
2017-05-26T13:42:11.676Z,432